Fort Qu'Appelle, Canada
Current Conditions -  °F | °C
As of 6:00 AM on Monday 26 Jan 2015 (Local Time) from CYQR Reporting Station
Broken Clouds Broken Clouds  
Wind Chill: -3°   Ceiling: 9000
Heat Index:   Visibility: 15mi
Dew Point:   Wind: 13mph
Humidity: 87%   Direction: 300°WNW
Pressure: 29.87"   Gusts: NA
Location:  50.77°N, 103.78°W
Report Text: CYQR 261200Z 30011KT 15SM BKN090 02/M00 A2987 RMK AC6 SLP142
Loading
Personal Weather Stations






























Interactive Weather Map New forecast layout! Learn more

10-Day Weather Forecast

Advertisements
Track Severe Weather on mobile